sensor_id;sensor_type;location;lat;lon;timestamp;P1;durP1;ratioP1;P2;durP2;ratioP2
80536;SDS011;69867;47.074;15.404;2024-03-02T00:00:54;49.88;;;22.08;;
80536;SDS011;69867;47.074;15.404;2024-03-02T00:03:19;46.10;;;20.80;;
80536;SDS011;69867;47.074;15.404;2024-03-02T00:05:48;51.05;;;23.05;;
80536;SDS011;69867;47.074;15.404;2024-03-02T00:08:15;55.10;;;25.20;;
80536;SDS011;69867;47.074;15.404;2024-03-02T00:10:48;55.45;;;23.77;;
80536;SDS011;69867;47.074;15.404;2024-03-02T00:13:13;47.42;;;23.45;;
80536;SDS011;69867;47.074;15.404;2024-03-02T00:18:08;48.83;;;22.63;;
80536;SDS011;69867;47.074;15.404;2024-03-02T00:20:36;43.88;;;19.95;;
80536;SDS011;69867;47.074;15.404;2024-03-02T00:23:04;50.28;;;21.75;;
80536;SDS011;69867;47.074;15.404;2024-03-02T00:28:05;44.40;;;20.52;;
80536;SDS011;69867;47.074;15.404;2024-03-02T00:30:45;43.35;;;21.20;;
80536;SDS011;69867;47.074;15.404;2024-03-02T00:33:18;42.25;;;19.60;;
80536;SDS011;69867;47.074;15.404;2024-03-02T00:35:44;44.03;;;20.60;;
80536;SDS011;69867;47.074;15.404;2024-03-02T00:38:10;39.72;;;19.27;;
80536;SDS011;69867;47.074;15.404;2024-03-02T00:40:36;44.80;;;21.33;;
80536;SDS011;69867;47.074;15.404;2024-03-02T00:43:01;43.75;;;20.85;;
80536;SDS011;69867;47.074;15.404;2024-03-02T00:45:27;43.30;;;20.48;;
80536;SDS011;69867;47.074;15.404;2024-03-02T00:47:52;43.70;;;19.80;;
80536;SDS011;69867;47.074;15.404;2024-03-02T00:50:18;45.60;;;20.55;;
80536;SDS011;69867;47.074;15.404;2024-03-02T00:52:44;45.35;;;21.42;;
80536;SDS011;69867;47.074;15.404;2024-03-02T00:55:10;44.83;;;20.63;;
80536;SDS011;69867;47.074;15.404;2024-03-02T00:57:35;44.88;;;20.45;;
80536;SDS011;69867;47.074;15.404;2024-03-02T01:00:01;42.60;;;20.75;;
80536;SDS011;69867;47.074;15.404;2024-03-02T01:02:26;44.13;;;19.75;;
80536;SDS011;69867;47.074;15.404;2024-03-02T01:04:53;49.83;;;21.33;;
80536;SDS011;69867;47.074;15.404;2024-03-02T01:07:18;43.65;;;20.02;;
80536;SDS011;69867;47.074;15.404;2024-03-02T01:09:43;46.42;;;20.75;;
80536;SDS011;69867;47.074;15.404;2024-03-02T01:12:09;51.45;;;21.30;;
80536;SDS011;69867;47.074;15.404;2024-03-02T01:14:34;43.03;;;20.63;;
80536;SDS011;69867;47.074;15.404;2024-03-02T01:16:59;52.72;;;23.40;;
80536;SDS011;69867;47.074;15.404;2024-03-02T01:19:25;46.13;;;21.08;;
80536;SDS011;69867;47.074;15.404;2024-03-02T01:21:50;46.25;;;21.20;;
80536;SDS011;69867;47.074;15.404;2024-03-02T01:24:15;44.67;;;18.38;;
80536;SDS011;69867;47.074;15.404;2024-03-02T01:26:41;43.25;;;19.83;;
80536;SDS011;69867;47.074;15.404;2024-03-02T01:29:06;43.67;;;19.35;;
80536;SDS011;69867;47.074;15.404;2024-03-02T01:31:31;45.90;;;20.02;;
80536;SDS011;69867;47.074;15.404;2024-03-02T01:33:57;44.67;;;17.95;;
80536;SDS011;69867;47.074;15.404;2024-03-02T01:36:22;42.47;;;17.80;;
80536;SDS011;69867;47.074;15.404;2024-03-02T01:38:47;45.55;;;20.15;;
80536;SDS011;69867;47.074;15.404;2024-03-02T01:41:13;46.95;;;20.02;;
80536;SDS011;69867;47.074;15.404;2024-03-02T01:43:38;47.22;;;19.92;;
80536;SDS011;69867;47.074;15.404;2024-03-02T01:46:03;43.20;;;17.88;;
80536;SDS011;69867;47.074;15.404;2024-03-02T01:48:29;44.17;;;18.20;;
80536;SDS011;69867;47.074;15.404;2024-03-02T01:50:54;42.45;;;18.63;;
80536;SDS011;69867;47.074;15.404;2024-03-02T01:53:20;42.38;;;18.77;;
80536;SDS011;69867;47.074;15.404;2024-03-02T01:55:45;40.92;;;18.17;;
80536;SDS011;69867;47.074;15.404;2024-03-02T01:58:10;44.33;;;18.17;;
80536;SDS011;69867;47.074;15.404;2024-03-02T02:00:36;38.88;;;17.45;;
80536;SDS011;69867;47.074;15.404;2024-03-02T02:03:01;39.40;;;17.42;;
80536;SDS011;69867;47.074;15.404;2024-03-02T02:05:27;39.45;;;18.60;;
80536;SDS011;69867;47.074;15.404;2024-03-02T02:07:52;40.78;;;19.25;;
80536;SDS011;69867;47.074;15.404;2024-03-02T02:10:17;37.17;;;17.50;;
80536;SDS011;69867;47.074;15.404;2024-03-02T02:12:43;39.30;;;17.17;;
80536;SDS011;69867;47.074;15.404;2024-03-02T02:17:49;36.40;;;17.15;;
80536;SDS011;69867;47.074;15.404;2024-03-02T02:20:15;38.00;;;16.67;;
80536;SDS011;69867;47.074;15.404;2024-03-02T02:22:40;35.95;;;16.27;;
80536;SDS011;69867;47.074;15.404;2024-03-02T02:25:05;32.92;;;15.45;;
80536;SDS011;69867;47.074;15.404;2024-03-02T02:27:31;39.47;;;16.05;;
80536;SDS011;69867;47.074;15.404;2024-03-02T02:29:56;33.55;;;14.65;;
80536;SDS011;69867;47.074;15.404;2024-03-02T02:32:21;37.42;;;16.73;;
80536;SDS011;69867;47.074;15.404;2024-03-02T02:34:47;34.08;;;15.63;;
80536;SDS011;69867;47.074;15.404;2024-03-02T02:37:17;35.63;;;16.63;;
80536;SDS011;69867;47.074;15.404;2024-03-02T02:39:43;35.67;;;15.77;;
80536;SDS011;69867;47.074;15.404;2024-03-02T02:42:08;34.35;;;16.17;;
80536;SDS011;69867;47.074;15.404;2024-03-02T02:44:34;36.70;;;16.85;;
80536;SDS011;69867;47.074;15.404;2024-03-02T02:47:00;36.40;;;16.17;;
80536;SDS011;69867;47.074;15.404;2024-03-02T02:49:25;37.25;;;15.77;;
80536;SDS011;69867;47.074;15.404;2024-03-02T02:51:51;33.92;;;15.38;;
80536;SDS011;69867;47.074;15.404;2024-03-02T02:54:17;34.92;;;15.27;;
80536;SDS011;69867;47.074;15.404;2024-03-02T02:56:42;34.53;;;15.00;;
80536;SDS011;69867;47.074;15.404;2024-03-02T02:59:07;33.13;;;13.57;;
80536;SDS011;69867;47.074;15.404;2024-03-02T03:01:33;34.25;;;14.15;;
80536;SDS011;69867;47.074;15.404;2024-03-02T03:03:58;30.80;;;13.32;;
80536;SDS011;69867;47.074;15.404;2024-03-02T03:06:23;35.83;;;15.32;;
80536;SDS011;69867;47.074;15.404;2024-03-02T03:08:49;35.53;;;14.43;;
80536;SDS011;69867;47.074;15.404;2024-03-02T03:11:14;35.28;;;15.02;;
80536;SDS011;69867;47.074;15.404;2024-03-02T03:13:39;30.33;;;13.07;;
80536;SDS011;69867;47.074;15.404;2024-03-02T03:16:04;35.53;;;15.38;;
80536;SDS011;69867;47.074;15.404;2024-03-02T03:18:30;32.05;;;14.63;;
80536;SDS011;69867;47.074;15.404;2024-03-02T03:20:55;32.47;;;14.23;;
80536;SDS011;69867;47.074;15.404;2024-03-02T03:23:20;28.02;;;13.95;;
80536;SDS011;69867;47.074;15.404;2024-03-02T03:25:46;32.28;;;13.70;;
80536;SDS011;69867;47.074;15.404;2024-03-02T03:28:11;39.75;;;14.30;;
80536;SDS011;69867;47.074;15.404;2024-03-02T03:30:37;31.15;;;13.60;;
80536;SDS011;69867;47.074;15.404;2024-03-02T03:33:03;30.15;;;13.80;;
80536;SDS011;69867;47.074;15.404;2024-03-02T03:35:29;31.45;;;13.88;;
80536;SDS011;69867;47.074;15.404;2024-03-02T03:37:54;26.83;;;12.27;;
80536;SDS011;69867;47.074;15.404;2024-03-02T03:40:20;26.55;;;12.68;;
80536;SDS011;69867;47.074;15.404;2024-03-02T03:42:45;29.30;;;12.95;;
80536;SDS011;69867;47.074;15.404;2024-03-02T03:45:10;27.98;;;13.38;;
80536;SDS011;69867;47.074;15.404;2024-03-02T03:47:36;29.02;;;12.57;;
80536;SDS011;69867;47.074;15.404;2024-03-02T03:50:01;28.27;;;12.52;;
80536;SDS011;69867;47.074;15.404;2024-03-02T03:52:26;35.95;;;14.43;;
80536;SDS011;69867;47.074;15.404;2024-03-02T03:54:52;34.25;;;14.02;;
80536;SDS011;69867;47.074;15.404;2024-03-02T03:57:17;33.30;;;15.30;;
80536;SDS011;69867;47.074;15.404;2024-03-02T03:59:43;29.05;;;12.90;;
80536;SDS011;69867;47.074;15.404;2024-03-02T04:02:08;32.42;;;14.48;;
80536;SDS011;69867;47.074;15.404;2024-03-02T04:04:34;32.30;;;14.73;;
80536;SDS011;69867;47.074;15.404;2024-03-02T04:06:59;32.40;;;14.23;;
80536;SDS011;69867;47.074;15.404;2024-03-02T04:09:25;35.85;;;13.82;;
80536;SDS011;69867;47.074;15.404;2024-03-02T04:11:50;33.50;;;14.10;;
80536;SDS011;69867;47.074;15.404;2024-03-02T04:14:16;29.25;;;13.50;;
80536;SDS011;69867;47.074;15.404;2024-03-02T04:16:41;32.15;;;13.85;;
80536;SDS011;69867;47.074;15.404;2024-03-02T04:19:06;26.95;;;12.18;;
80536;SDS011;69867;47.074;15.404;2024-03-02T04:21:32;32.42;;;13.82;;
80536;SDS011;69867;47.074;15.404;2024-03-02T04:23:57;31.70;;;13.70;;
80536;SDS011;69867;47.074;15.404;2024-03-02T04:26:22;29.70;;;14.18;;
80536;SDS011;69867;47.074;15.404;2024-03-02T04:28:48;32.97;;;13.30;;
80536;SDS011;69867;47.074;15.404;2024-03-02T04:31:14;28.73;;;13.95;;
80536;SDS011;69867;47.074;15.404;2024-03-02T04:33:40;24.00;;;11.60;;
80536;SDS011;69867;47.074;15.404;2024-03-02T04:36:05;25.85;;;11.65;;
80536;SDS011;69867;47.074;15.404;2024-03-02T04:38:31;25.13;;;11.20;;
80536;SDS011;69867;47.074;15.404;2024-03-02T04:40:56;27.02;;;12.38;;
80536;SDS011;69867;47.074;15.404;2024-03-02T04:43:21;26.63;;;11.98;;
80536;SDS011;69867;47.074;15.404;2024-03-02T04:45:47;29.17;;;12.38;;
80536;SDS011;69867;47.074;15.404;2024-03-02T04:48:12;29.25;;;13.52;;
80536;SDS011;69867;47.074;15.404;2024-03-02T04:50:37;25.45;;;12.48;;
80536;SDS011;69867;47.074;15.404;2024-03-02T04:53:03;26.02;;;11.35;;
80536;SDS011;69867;47.074;15.404;2024-03-02T04:55:28;25.58;;;11.65;;
80536;SDS011;69867;47.074;15.404;2024-03-02T04:57:53;31.40;;;11.90;;
80536;SDS011;69867;47.074;15.404;2024-03-02T05:00:19;26.20;;;12.20;;
80536;SDS011;69867;47.074;15.404;2024-03-02T05:02:44;26.52;;;11.93;;
80536;SDS011;69867;47.074;15.404;2024-03-02T05:05:09;22.60;;;11.02;;
80536;SDS011;69867;47.074;15.404;2024-03-02T05:07:35;26.50;;;11.90;;
80536;SDS011;69867;47.074;15.404;2024-03-02T05:10:00;27.00;;;12.13;;
80536;SDS011;69867;47.074;15.404;2024-03-02T05:12:25;30.52;;;12.00;;
80536;SDS011;69867;47.074;15.404;2024-03-02T05:14:51;26.02;;;12.48;;
80536;SDS011;69867;47.074;15.404;2024-03-02T05:17:16;25.27;;;12.02;;
80536;SDS011;69867;47.074;15.404;2024-03-02T05:19:41;28.98;;;12.45;;
80536;SDS011;69867;47.074;15.404;2024-03-02T05:22:06;27.73;;;11.73;;
80536;SDS011;69867;47.074;15.404;2024-03-02T05:24:32;29.67;;;12.73;;
80536;SDS011;69867;47.074;15.404;2024-03-02T05:26:57;30.98;;;12.88;;
80536;SDS011;69867;47.074;15.404;2024-03-02T05:29:22;26.15;;;13.32;;
80536;SDS011;69867;47.074;15.404;2024-03-02T05:31:48;29.02;;;13.63;;
80536;SDS011;69867;47.074;15.404;2024-03-02T05:34:13;28.08;;;12.55;;
80536;SDS011;69867;47.074;15.404;2024-03-02T05:36:39;27.08;;;12.15;;
80536;SDS011;69867;47.074;15.404;2024-03-02T05:39:04;25.40;;;12.30;;
80536;SDS011;69867;47.074;15.404;2024-03-02T05:41:30;27.25;;;11.90;;
80536;SDS011;69867;47.074;15.404;2024-03-02T05:43:56;30.85;;;13.48;;
80536;SDS011;69867;47.074;15.404;2024-03-02T05:46:21;29.75;;;12.88;;
80536;SDS011;69867;47.074;15.404;2024-03-02T05:48:46;26.63;;;11.82;;
80536;SDS011;69867;47.074;15.404;2024-03-02T05:51:12;25.85;;;11.13;;
80536;SDS011;69867;47.074;15.404;2024-03-02T05:53:37;28.55;;;12.35;;
80536;SDS011;69867;47.074;15.404;2024-03-02T05:56:02;27.95;;;11.35;;
80536;SDS011;69867;47.074;15.404;2024-03-02T05:58:28;27.65;;;11.88;;
80536;SDS011;69867;47.074;15.404;2024-03-02T06:00:53;27.45;;;11.65;;
80536;SDS011;69867;47.074;15.404;2024-03-02T06:03:18;26.48;;;11.77;;
80536;SDS011;69867;47.074;15.404;2024-03-02T06:05:44;25.17;;;10.80;;
80536;SDS011;69867;47.074;15.404;2024-03-02T06:08:09;29.13;;;11.93;;
80536;SDS011;69867;47.074;15.404;2024-03-02T06:10:34;24.70;;;12.23;;
80536;SDS011;69867;47.074;15.404;2024-03-02T06:13:00;32.50;;;13.50;;
80536;SDS011;69867;47.074;15.404;2024-03-02T06:15:25;24.27;;;12.00;;
80536;SDS011;69867;47.074;15.404;2024-03-02T06:17:50;27.95;;;12.93;;
80536;SDS011;69867;47.074;15.404;2024-03-02T06:20:16;30.02;;;12.30;;
80536;SDS011;69867;47.074;15.404;2024-03-02T06:22:41;29.50;;;12.52;;
80536;SDS011;69867;47.074;15.404;2024-03-02T06:25:06;26.20;;;10.52;;
80536;SDS011;69867;47.074;15.404;2024-03-02T06:27:32;27.15;;;10.38;;
80536;SDS011;69867;47.074;15.404;2024-03-02T06:29:57;25.05;;;11.18;;
80536;SDS011;69867;47.074;15.404;2024-03-02T06:32:23;28.75;;;11.07;;
80536;SDS011;69867;47.074;15.404;2024-03-02T06:34:48;24.13;;;10.77;;
80536;SDS011;69867;47.074;15.404;2024-03-02T06:37:13;28.45;;;11.50;;
80536;SDS011;69867;47.074;15.404;2024-03-02T06:39:39;22.67;;;9.73;;
80536;SDS011;69867;47.074;15.404;2024-03-02T06:42:04;24.60;;;10.30;;
80536;SDS011;69867;47.074;15.404;2024-03-02T06:44:29;22.33;;;10.95;;
80536;SDS011;69867;47.074;15.404;2024-03-02T06:46:55;24.00;;;10.77;;
80536;SDS011;69867;47.074;15.404;2024-03-02T06:49:20;26.00;;;12.02;;
80536;SDS011;69867;47.074;15.404;2024-03-02T06:51:45;27.40;;;12.25;;
80536;SDS011;69867;47.074;15.404;2024-03-02T06:54:10;31.05;;;12.65;;
80536;SDS011;69867;47.074;15.404;2024-03-02T06:56:36;26.92;;;12.38;;
80536;SDS011;69867;47.074;15.404;2024-03-02T06:59:01;30.98;;;13.05;;
80536;SDS011;69867;47.074;15.404;2024-03-02T07:01:26;28.85;;;13.50;;
80536;SDS011;69867;47.074;15.404;2024-03-02T07:03:52;30.00;;;14.43;;
80536;SDS011;69867;47.074;15.404;2024-03-02T07:06:17;27.20;;;13.57;;
80536;SDS011;69867;47.074;15.404;2024-03-02T07:08:42;27.17;;;12.55;;
80536;SDS011;69867;47.074;15.404;2024-03-02T07:11:08;26.40;;;13.30;;
80536;SDS011;69867;47.074;15.404;2024-03-02T07:13:33;31.65;;;14.15;;
80536;SDS011;69867;47.074;15.404;2024-03-02T07:15:59;33.20;;;15.07;;
80536;SDS011;69867;47.074;15.404;2024-03-02T07:18:24;29.52;;;14.90;;
80536;SDS011;69867;47.074;15.404;2024-03-02T07:20:50;28.70;;;13.45;;
80536;SDS011;69867;47.074;15.404;2024-03-02T07:23:15;29.27;;;13.25;;
80536;SDS011;69867;47.074;15.404;2024-03-02T07:25:40;31.58;;;14.95;;
80536;SDS011;69867;47.074;15.404;2024-03-02T07:28:06;29.77;;;14.13;;
80536;SDS011;69867;47.074;15.404;2024-03-02T07:30:31;29.77;;;13.52;;
80536;SDS011;69867;47.074;15.404;2024-03-02T07:32:56;29.75;;;12.90;;
80536;SDS011;69867;47.074;15.404;2024-03-02T07:35:22;26.52;;;13.38;;
80536;SDS011;69867;47.074;15.404;2024-03-02T07:37:47;35.10;;;14.30;;
80536;SDS011;69867;47.074;15.404;2024-03-02T07:40:12;27.80;;;12.30;;
80536;SDS011;69867;47.074;15.404;2024-03-02T07:42:41;25.77;;;12.40;;
80536;SDS011;69867;47.074;15.404;2024-03-02T07:45:06;23.27;;;12.75;;
80536;SDS011;69867;47.074;15.404;2024-03-02T07:47:35;25.55;;;11.82;;
80536;SDS011;69867;47.074;15.404;2024-03-02T07:50:00;25.05;;;12.13;;
80536;SDS011;69867;47.074;15.404;2024-03-02T07:52:25;26.80;;;12.38;;
80536;SDS011;69867;47.074;15.404;2024-03-02T07:54:51;26.33;;;13.02;;
80536;SDS011;69867;47.074;15.404;2024-03-02T07:57:16;29.05;;;13.00;;
80536;SDS011;69867;47.074;15.404;2024-03-02T07:59:42;28.92;;;13.65;;
80536;SDS011;69867;47.074;15.404;2024-03-02T08:02:07;28.95;;;13.57;;
80536;SDS011;69867;47.074;15.404;2024-03-02T08:04:32;29.75;;;13.50;;
80536;SDS011;69867;47.074;15.404;2024-03-02T08:06:58;26.50;;;12.68;;
80536;SDS011;69867;47.074;15.404;2024-03-02T08:09:23;28.23;;;12.45;;
80536;SDS011;69867;47.074;15.404;2024-03-02T08:11:48;26.98;;;12.90;;
80536;SDS011;69867;47.074;15.404;2024-03-02T08:14:14;28.85;;;13.27;;
80536;SDS011;69867;47.074;15.404;2024-03-02T08:16:39;23.85;;;12.23;;
80536;SDS011;69867;47.074;15.404;2024-03-02T08:19:05;24.60;;;12.50;;
80536;SDS011;69867;47.074;15.404;2024-03-02T08:21:30;28.40;;;11.30;;
80536;SDS011;69867;47.074;15.404;2024-03-02T08:23:56;28.30;;;13.68;;
80536;SDS011;69867;47.074;15.404;2024-03-02T08:26:22;21.60;;;11.88;;
80536;SDS011;69867;47.074;15.404;2024-03-02T08:28:47;28.63;;;12.70;;
80536;SDS011;69867;47.074;15.404;2024-03-02T08:31:13;23.02;;;11.77;;
80536;SDS011;69867;47.074;15.404;2024-03-02T08:33:38;25.63;;;12.25;;
80536;SDS011;69867;47.074;15.404;2024-03-02T08:36:04;24.45;;;10.95;;
80536;SDS011;69867;47.074;15.404;2024-03-02T08:38:30;25.42;;;12.00;;
80536;SDS011;69867;47.074;15.404;2024-03-02T08:40:55;22.67;;;10.43;;
80536;SDS011;69867;47.074;15.404;2024-03-02T08:43:21;23.88;;;11.75;;
80536;SDS011;69867;47.074;15.404;2024-03-02T08:45:46;24.35;;;11.27;;
80536;SDS011;69867;47.074;15.404;2024-03-02T08:48:12;26.23;;;12.50;;
80536;SDS011;69867;47.074;15.404;2024-03-02T08:50:37;25.75;;;12.70;;
80536;SDS011;69867;47.074;15.404;2024-03-02T08:53:05;25.63;;;13.73;;
80536;SDS011;69867;47.074;15.404;2024-03-02T08:55:31;25.48;;;13.10;;
80536;SDS011;69867;47.074;15.404;2024-03-02T08:57:56;27.23;;;13.10;;
80536;SDS011;69867;47.074;15.404;2024-03-02T09:00:22;27.60;;;13.75;;
80536;SDS011;69867;47.074;15.404;2024-03-02T09:02:48;30.48;;;13.07;;
80536;SDS011;69867;47.074;15.404;2024-03-02T09:05:13;27.65;;;13.25;;
80536;SDS011;69867;47.074;15.404;2024-03-02T09:07:39;29.75;;;13.25;;
80536;SDS011;69867;47.074;15.404;2024-03-02T09:10:07;26.35;;;12.65;;
80536;SDS011;69867;47.074;15.404;2024-03-02T09:12:33;28.85;;;13.18;;
80536;SDS011;69867;47.074;15.404;2024-03-02T09:14:59;25.15;;;12.27;;
80536;SDS011;69867;47.074;15.404;2024-03-02T09:17:26;26.27;;;13.75;;
80536;SDS011;69867;47.074;15.404;2024-03-02T09:19:51;25.77;;;12.40;;
80536;SDS011;69867;47.074;15.404;2024-03-02T09:22:16;25.05;;;12.18;;
80536;SDS011;69867;47.074;15.404;2024-03-02T09:24:42;25.48;;;13.15;;
80536;SDS011;69867;47.074;15.404;2024-03-02T09:27:07;27.48;;;13.63;;
80536;SDS011;69867;47.074;15.404;2024-03-02T09:29:32;26.80;;;13.30;;
80536;SDS011;69867;47.074;15.404;2024-03-02T09:31:58;25.42;;;13.48;;
80536;SDS011;69867;47.074;15.404;2024-03-02T09:34:23;23.98;;;11.98;;
80536;SDS011;69867;47.074;15.404;2024-03-02T09:36:49;27.27;;;11.98;;
80536;SDS011;69867;47.074;15.404;2024-03-02T09:39:16;26.50;;;12.70;;
80536;SDS011;69867;47.074;15.404;2024-03-02T09:41:41;26.15;;;12.35;;
80536;SDS011;69867;47.074;15.404;2024-03-02T09:44:06;26.52;;;12.70;;
80536;SDS011;69867;47.074;15.404;2024-03-02T09:46:32;27.75;;;12.35;;
80536;SDS011;69867;47.074;15.404;2024-03-02T09:48:57;23.10;;;12.02;;
80536;SDS011;69867;47.074;15.404;2024-03-02T09:51:23;25.63;;;12.90;;
80536;SDS011;69867;47.074;15.404;2024-03-02T09:53:49;30.25;;;12.65;;
80536;SDS011;69867;47.074;15.404;2024-03-02T09:56:15;27.98;;;13.73;;
80536;SDS011;69867;47.074;15.404;2024-03-02T09:58:40;22.33;;;11.48;;
80536;SDS011;69867;47.074;15.404;2024-03-02T10:01:06;24.15;;;12.30;;
80536;SDS011;69867;47.074;15.404;2024-03-02T10:03:31;26.02;;;11.95;;
80536;SDS011;69867;47.074;15.404;2024-03-02T10:06:18;23.75;;;11.52;;
80536;SDS011;69867;47.074;15.404;2024-03-02T10:08:44;21.58;;;10.93;;
80536;SDS011;69867;47.074;15.404;2024-03-02T10:11:09;21.73;;;10.70;;
80536;SDS011;69867;47.074;15.404;2024-03-02T10:13:34;24.48;;;11.50;;
80536;SDS011;69867;47.074;15.404;2024-03-02T10:16:02;25.05;;;11.75;;
80536;SDS011;69867;47.074;15.404;2024-03-02T10:18:37;24.73;;;12.27;;
80536;SDS011;69867;47.074;15.404;2024-03-02T10:21:23;19.35;;;10.20;;
80536;SDS011;69867;47.074;15.404;2024-03-02T10:23:48;20.55;;;10.48;;
80536;SDS011;69867;47.074;15.404;2024-03-02T10:26:16;24.40;;;10.75;;
80536;SDS011;69867;47.074;15.404;2024-03-02T10:28:46;18.48;;;10.75;;
80536;SDS011;69867;47.074;15.404;2024-03-02T10:31:11;21.52;;;11.07;;
80536;SDS011;69867;47.074;15.404;2024-03-02T10:33:37;20.92;;;10.88;;
80536;SDS011;69867;47.074;15.404;2024-03-02T10:36:03;22.27;;;10.45;;
80536;SDS011;69867;47.074;15.404;2024-03-02T10:38:29;18.52;;;10.02;;
80536;SDS011;69867;47.074;15.404;2024-03-02T10:40:55;19.95;;;9.75;;
80536;SDS011;69867;47.074;15.404;2024-03-02T10:43:23;22.13;;;10.15;;
80536;SDS011;69867;47.074;15.404;2024-03-02T10:45:49;17.40;;;9.63;;
80536;SDS011;69867;47.074;15.404;2024-03-02T10:48:14;23.50;;;10.80;;
80536;SDS011;69867;47.074;15.404;2024-03-02T10:50:39;19.85;;;11.15;;
80536;SDS011;69867;47.074;15.404;2024-03-02T10:53:05;20.50;;;10.77;;
80536;SDS011;69867;47.074;15.404;2024-03-02T10:55:30;21.02;;;9.50;;
80536;SDS011;69867;47.074;15.404;2024-03-02T10:57:55;18.23;;;9.70;;
80536;SDS011;69867;47.074;15.404;2024-03-02T11:00:25;16.42;;;8.88;;
80536;SDS011;69867;47.074;15.404;2024-03-02T11:02:56;16.27;;;8.70;;
80536;SDS011;69867;47.074;15.404;2024-03-02T11:05:26;15.70;;;8.10;;
80536;SDS011;69867;47.074;15.404;2024-03-02T11:07:53;16.40;;;7.80;;
80536;SDS011;69867;47.074;15.404;2024-03-02T11:10:36;17.15;;;8.85;;
80536;SDS011;69867;47.074;15.404;2024-03-02T11:13:05;17.02;;;8.32;;
80536;SDS011;69867;47.074;15.404;2024-03-02T11:15:34;19.40;;;8.30;;
80536;SDS011;69867;47.074;15.404;2024-03-02T11:18:00;16.05;;;8.27;;
80536;SDS011;69867;47.074;15.404;2024-03-02T11:20:26;15.07;;;7.97;;
80536;SDS011;69867;47.074;15.404;2024-03-02T11:22:52;16.60;;;8.35;;
80536;SDS011;69867;47.074;15.404;2024-03-02T11:25:36;16.40;;;8.25;;
80536;SDS011;69867;47.074;15.404;2024-03-02T11:28:02;17.98;;;7.88;;
80536;SDS011;69867;47.074;15.404;2024-03-02T11:32:56;15.95;;;8.05;;
80536;SDS011;69867;47.074;15.404;2024-03-02T11:35:23;15.50;;;7.95;;
80536;SDS011;69867;47.074;15.404;2024-03-02T11:37:50;14.85;;;7.10;;
80536;SDS011;69867;47.074;15.404;2024-03-02T11:40:15;15.02;;;7.25;;
80536;SDS011;69867;47.074;15.404;2024-03-02T11:45:12;13.87;;;7.20;;
80536;SDS011;69867;47.074;15.404;2024-03-02T11:47:41;13.70;;;7.05;;
80536;SDS011;69867;47.074;15.404;2024-03-02T11:50:15;13.05;;;6.78;;
80536;SDS011;69867;47.074;15.404;2024-03-02T11:52:40;21.05;;;7.93;;
80536;SDS011;69867;47.074;15.404;2024-03-02T11:55:07;14.20;;;6.80;;
80536;SDS011;69867;47.074;15.404;2024-03-02T11:57:33;11.57;;;5.78;;
80536;SDS011;69867;47.074;15.404;2024-03-02T11:59:58;12.25;;;6.10;;
80536;SDS011;69867;47.074;15.404;2024-03-02T12:02:24;12.15;;;6.25;;
80536;SDS011;69867;47.074;15.404;2024-03-02T12:04:49;10.98;;;5.15;;
80536;SDS011;69867;47.074;15.404;2024-03-02T12:07:18;13.20;;;6.45;;
80536;SDS011;69867;47.074;15.404;2024-03-02T12:09:48;13.40;;;6.88;;
80536;SDS011;69867;47.074;15.404;2024-03-02T12:12:13;14.50;;;7.47;;
80536;SDS011;69867;47.074;15.404;2024-03-02T12:14:39;14.57;;;6.88;;
80536;SDS011;69867;47.074;15.404;2024-03-02T12:17:04;11.48;;;5.90;;
80536;SDS011;69867;47.074;15.404;2024-03-02T12:19:30;11.30;;;6.00;;
80536;SDS011;69867;47.074;15.404;2024-03-02T12:21:57;11.00;;;6.22;;
80536;SDS011;69867;47.074;15.404;2024-03-02T12:24:22;12.45;;;6.28;;
80536;SDS011;69867;47.074;15.404;2024-03-02T12:26:49;12.00;;;5.72;;
80536;SDS011;69867;47.074;15.404;2024-03-02T12:29:15;13.57;;;7.03;;
80536;SDS011;69867;47.074;15.404;2024-03-02T12:31:44;13.43;;;6.43;;
80536;SDS011;69867;47.074;15.404;2024-03-02T12:34:09;16.00;;;7.65;;
80536;SDS011;69867;47.074;15.404;2024-03-02T12:36:39;15.68;;;6.53;;
80536;SDS011;69867;47.074;15.404;2024-03-02T12:39:04;12.57;;;6.28;;
80536;SDS011;69867;47.074;15.404;2024-03-02T12:41:30;14.32;;;6.22;;
80536;SDS011;69867;47.074;15.404;2024-03-02T12:43:55;12.85;;;5.95;;
80536;SDS011;69867;47.074;15.404;2024-03-02T12:46:21;11.77;;;5.60;;
80536;SDS011;69867;47.074;15.404;2024-03-02T12:48:46;12.43;;;5.75;;
80536;SDS011;69867;47.074;15.404;2024-03-02T12:51:12;10.05;;;5.47;;
80536;SDS011;69867;47.074;15.404;2024-03-02T12:53:37;10.93;;;4.70;;
80536;SDS011;69867;47.074;15.404;2024-03-02T12:56:02;9.57;;;5.22;;
80536;SDS011;69867;47.074;15.404;2024-03-02T12:58:28;11.43;;;5.80;;
80536;SDS011;69867;47.074;15.404;2024-03-02T13:01:09;12.70;;;6.53;;
80536;SDS011;69867;47.074;15.404;2024-03-02T13:03:35;9.43;;;5.13;;
80536;SDS011;69867;47.074;15.404;2024-03-02T13:06:02;11.02;;;5.05;;
80536;SDS011;69867;47.074;15.404;2024-03-02T13:08:28;10.60;;;5.45;;
80536;SDS011;69867;47.074;15.404;2024-03-02T13:10:53;11.00;;;5.28;;
80536;SDS011;69867;47.074;15.404;2024-03-02T13:13:19;10.77;;;5.50;;
80536;SDS011;69867;47.074;15.404;2024-03-02T13:15:44;13.48;;;5.22;;
80536;SDS011;69867;47.074;15.404;2024-03-02T13:18:10;10.07;;;5.40;;
80536;SDS011;69867;47.074;15.404;2024-03-02T13:20:36;9.85;;;4.40;;
80536;SDS011;69867;47.074;15.404;2024-03-02T13:23:02;15.63;;;4.93;;
80536;SDS011;69867;47.074;15.404;2024-03-02T13:25:27;9.38;;;5.00;;
80536;SDS011;69867;47.074;15.404;2024-03-02T13:27:52;9.00;;;4.85;;
80536;SDS011;69867;47.074;15.404;2024-03-02T13:30:18;9.27;;;5.13;;
80536;SDS011;69867;47.074;15.404;2024-03-02T13:32:43;9.60;;;5.20;;
80536;SDS011;69867;47.074;15.404;2024-03-02T13:35:08;10.43;;;4.90;;
80536;SDS011;69867;47.074;15.404;2024-03-02T13:37:34;13.02;;;4.93;;
80536;SDS011;69867;47.074;15.404;2024-03-02T13:39:59;10.23;;;4.78;;
80536;SDS011;69867;47.074;15.404;2024-03-02T13:42:24;9.32;;;4.78;;
80536;SDS011;69867;47.074;15.404;2024-03-02T13:44:50;11.18;;;4.50;;
80536;SDS011;69867;47.074;15.404;2024-03-02T13:47:15;11.82;;;4.65;;
80536;SDS011;69867;47.074;15.404;2024-03-02T13:49:41;9.93;;;4.72;;
80536;SDS011;69867;47.074;15.404;2024-03-02T13:52:06;9.60;;;5.18;;
80536;SDS011;69867;47.074;15.404;2024-03-02T13:54:32;10.63;;;4.28;;
80536;SDS011;69867;47.074;15.404;2024-03-02T13:56:57;8.20;;;4.55;;
80536;SDS011;69867;47.074;15.404;2024-03-02T13:59:22;12.13;;;4.85;;
80536;SDS011;69867;47.074;15.404;2024-03-02T14:01:48;6.30;;;3.83;;
80536;SDS011;69867;47.074;15.404;2024-03-02T14:04:13;10.13;;;4.93;;
80536;SDS011;69867;47.074;15.404;2024-03-02T14:06:38;11.65;;;5.00;;
80536;SDS011;69867;47.074;15.404;2024-03-02T14:09:04;9.27;;;4.88;;
80536;SDS011;69867;47.074;15.404;2024-03-02T14:11:29;9.93;;;5.18;;
80536;SDS011;69867;47.074;15.404;2024-03-02T14:13:54;6.63;;;3.80;;
80536;SDS011;69867;47.074;15.404;2024-03-02T14:16:20;8.30;;;4.35;;
80536;SDS011;69867;47.074;15.404;2024-03-02T14:18:45;9.82;;;5.40;;